Time;durP1;ratioP1;P1;durP2;ratioP2;P2;SDS_P1;SDS_P2;PMS_P1;PMS_P2;Temp;Humidity;BMP_temperature;BMP_pressure;BME280_temperature;BME280_humidity;BME280_pressure;Samples;Min_cycle;Max_cycle;Signal;HPM_P1;HPM_P2
2022/10/23 00:01:25;;;;;;;13.55;3.78;;;18.30;99.90;;;;;;5038254;28;20504;-76
2022/10/23 00:03:57;;;;;;;11.73;3.80;;;18.30;99.90;;;;;;5039411;28;20033;-77
2022/10/23 00:06:24;;;;;;;9.52;3.47;;;18.20;99.90;;;;;;5038116;28;20914;-77
2022/10/23 00:08:50;;;;;;;13.05;4.35;;;18.20;99.90;;;;;;5038847;28;20033;-76
2022/10/23 00:11:21;;;;;;;9.85;3.42;;;18.20;99.90;;;;;;5038796;28;20049;-76
2022/10/23 00:13:48;;;;;;;18.50;4.47;;;18.20;99.90;;;;;;5039418;28;20048;-77
2022/10/23 00:16:13;;;;;;;10.63;3.17;;;18.30;99.90;;;;;;5039482;28;20559;-76
2022/10/23 00:18:40;;;;;;;12.60;3.50;;;18.20;99.90;;;;;;5039393;28;20022;-77
2022/10/23 00:21:08;;;;;;;12.85;3.55;;;18.30;99.90;;;;;;5039476;28;20018;-76
2022/10/23 00:23:34;;;;;;;15.80;4.65;;;18.30;99.90;;;;;;5037958;28;20029;-76
2022/10/23 00:26:00;;;;;;;9.95;3.63;;;18.20;99.90;;;;;;5037681;28;20037;-75
2022/10/23 00:28:26;;;;;;;10.40;3.30;;;18.20;99.90;;;;;;5037672;28;20375;-76
2022/10/23 00:30:52;;;;;;;11.75;3.80;;;18.10;99.90;;;;;;5039146;28;20026;-76
2022/10/23 00:33:18;;;;;;;11.70;3.10;;;18.10;99.90;;;;;;5039177;28;20017;-77
2022/10/23 00:35:44;;;;;;;10.57;4.20;;;18.00;99.90;;;;;;5037808;28;20040;-77
2022/10/23 00:38:10;;;;;;;14.35;3.92;;;18.10;99.90;;;;;;5035376;28;20052;-77
2022/10/23 00:40:37;;;;;;;10.90;3.70;;;18.10;99.90;;;;;;5039209;28;20029;-75
2022/10/23 00:43:03;;;;;;;7.70;3.08;;;18.10;99.90;;;;;;5038607;28;20026;-77
2022/10/23 00:45:32;;;;;;;11.48;4.30;;;18.20;99.90;;;;;;5038965;28;20061;-76
2022/10/23 00:48:02;;;;;;;13.57;4.10;;;18.20;99.90;;;;;;5037403;28;20028;-76
2022/10/23 00:50:31;;;;;;;11.23;3.95;;;18.20;99.90;;;;;;5038872;28;20025;-76
2022/10/23 00:53:00;;;;;;;9.40;4.28;;;18.20;99.90;;;;;;5038731;28;20648;-77
2022/10/23 00:55:28;;;;;;;7.07;3.42;;;18.20;99.90;;;;;;5038832;28;20036;-77
2022/10/23 00:57:54;;;;;;;15.77;4.18;;;18.10;99.90;;;;;;5038429;28;20021;-77
2022/10/23 01:00:27;;;;;;;7.80;3.35;;;18.10;99.90;;;;;;5038598;28;20405;-76
2022/10/23 01:02:55;;;;;;;8.60;3.50;;;18.10;99.90;;;;;;5038384;28;20024;-77
2022/10/23 01:05:26;;;;;;;12.68;3.33;;;18.10;99.90;;;;;;5038359;28;20018;-77
2022/10/23 01:07:55;;;;;;;12.43;2.95;;;18.10;99.90;;;;;;5037238;28;20160;-77
2022/10/23 01:10:38;;;;;;;13.75;3.65;;;18.20;99.90;;;;;;5037518;28;20030;-77
2022/10/23 01:13:27;;;;;;;12.27;4.00;;;18.20;99.90;;;;;;5036724;28;20041;-77
2022/10/23 01:16:03;;;;;;;14.20;3.95;;;18.20;99.90;;;;;;5043320;28;20028;-76
2022/10/23 01:18:48;;;;;;;9.73;3.53;;;18.30;99.90;;;;;;5036655;28;20041;-77
2022/10/23 01:21:22;;;;;;;9.27;3.15;;;18.30;99.90;;;;;;5038293;28;20022;-76
2022/10/23 01:24:13;;;;;;;13.02;4.03;;;18.30;99.90;;;;;;5037363;28;20602;-76
2022/10/23 01:27:00;;;;;;;9.20;3.20;;;18.30;99.90;;;;;;5048237;28;20017;-77
2022/10/23 01:29:32;;;;;;;9.05;3.75;;;18.30;99.90;;;;;;5038005;28;20026;-77
2022/10/23 01:32:07;;;;;;;12.10;3.90;;;18.30;99.90;;;;;;5038008;28;20529;-77
2022/10/23 01:34:45;;;;;;;11.32;3.90;;;18.40;99.90;;;;;;5037959;28;20470;-77
2022/10/23 01:37:17;;;;;;;11.85;3.17;;;18.40;99.90;;;;;;5038015;28;20033;-77
2022/10/23 01:39:48;;;;;;;13.00;3.78;;;18.40;99.90;;;;;;5037808;28;20052;-77
2022/10/23 01:42:27;;;;;;;19.38;4.15;;;18.40;99.90;;;;;;5035356;28;20067;-77
2022/10/23 01:45:24;;;;;;;9.15;3.33;;;18.40;99.90;;;;;;5037665;28;20409;-78
2022/10/23 01:47:52;;;;;;;12.85;4.38;;;18.40;99.90;;;;;;5031501;28;20112;-77
2022/10/23 01:50:20;;;;;;;7.50;3.55;;;18.40;99.90;;;;;;5037752;28;20029;-76
2022/10/23 01:52:46;;;;;;;7.57;3.35;;;18.40;99.90;;;;;;5037618;28;20041;-79
2022/10/23 01:55:13;;;;;;;16.35;3.63;;;18.40;99.90;;;;;;5036188;28;20524;-77
2022/10/23 01:57:40;;;;;;;9.20;3.53;;;18.40;99.90;;;;;;5037328;28;20033;-77
2022/10/23 02:00:13;;;;;;;12.70;4.13;;;18.30;99.90;;;;;;5036209;28;20036;-77
2022/10/23 02:02:42;;;;;;;12.70;3.50;;;18.30;99.90;;;;;;5037277;28;20060;-77
2022/10/23 02:05:13;;;;;;;12.32;4.07;;;18.30;99.90;;;;;;5037242;28;20064;-77
2022/10/23 02:07:39;;;;;;;9.55;3.95;;;18.40;99.90;;;;;;5037360;28;20362;-78
2022/10/23 02:10:07;;;;;;;7.28;3.20;;;18.40;99.90;;;;;;5035896;28;20099;-77
2022/10/23 02:12:50;;;;;;;12.75;3.53;;;18.40;99.90;;;;;;5036710;28;20125;-77
2022/10/23 02:15:52;;;;;;;8.45;3.97;;;18.50;99.90;;;;;;5035826;28;20149;-77
2022/10/23 02:18:36;;;;;;;10.82;4.03;;;18.50;99.90;;;;;;5021323;28;20505;-76
2022/10/23 02:21:10;;;;;;;8.82;3.97;;;18.60;99.90;;;;;;5037444;28;20037;-77
2022/10/23 02:23:50;;;;;;;12.15;3.83;;;18.70;99.90;;;;;;5037040;28;20079;-77
2022/10/23 02:26:22;;;;;;;18.98;3.90;;;18.70;99.90;;;;;;5037037;28;20485;-76
2022/10/23 02:29:04;;;;;;;12.35;3.00;;;18.70;99.90;;;;;;5026060;28;20026;-77
2022/10/23 02:31:30;;;;;;;8.82;3.38;;;18.70;99.90;;;;;;5037052;28;20022;-77
2022/10/23 02:33:56;;;;;;;11.75;4.00;;;18.70;99.90;;;;;;5036586;28;20071;-77
2022/10/23 02:36:22;;;;;;;14.85;4.65;;;18.70;99.90;;;;;;5036276;28;20076;-77
2022/10/23 02:38:48;;;;;;;15.45;3.75;;;18.70;99.90;;;;;;5035763;28;20056;-77
2022/10/23 02:41:22;;;;;;;8.30;3.05;;;18.70;99.90;;;;;;5031526;28;20024;-78
2022/10/23 02:44:03;;;;;;;9.70;3.10;;;18.70;99.90;;;;;;5035447;28;20497;-77
2022/10/23 02:46:43;;;;;;;7.07;3.90;;;18.70;99.90;;;;;;5049988;28;20025;-76
2022/10/23 02:49:11;;;;;;;8.82;3.15;;;18.70;99.90;;;;;;5036648;28;20021;-76
2022/10/23 02:51:52;;;;;;;12.90;3.95;;;18.80;99.90;;;;;;5038904;28;20029;-77
2022/10/23 02:54:24;;;;;;;;;;;18.80;99.90;;;;;;5037168;28;20045;-77
2022/10/23 02:57:00;;;;;;;15.00;3.97;;;18.70;99.90;;;;;;5036761;28;19905;-77
2022/10/23 02:59:56;;;;;;;11.73;3.53;;;18.70;99.90;;;;;;5035356;28;20029;-77
2022/10/23 03:02:29;;;;;;;11.35;4.53;;;18.60;99.90;;;;;;5032785;28;20085;-76
2022/10/23 03:04:59;;;;;;;19.45;4.80;;;18.50;99.90;;;;;;5036022;28;20057;-77
2022/10/23 03:07:25;;;;;;;13.18;4.07;;;18.50;99.90;;;;;;5035914;28;20014;-76
2022/10/23 03:09:51;;;;;;;8.20;4.13;;;18.50;99.90;;;;;;5035120;28;20178;-77
2022/10/23 03:12:17;;;;;;;15.07;4.50;;;18.50;99.90;;;;;;5034800;28;20175;-78
2022/10/23 03:14:43;;;;;;;8.98;3.72;;;18.50;99.90;;;;;;5036261;28;20021;-76
2022/10/23 03:17:09;;;;;;;14.35;5.90;;;18.40;99.90;;;;;;5035221;28;20105;-77
2022/10/23 03:19:35;;;;;;;11.65;4.57;;;18.40;99.90;;;;;;5035417;28;20049;-77
2022/10/23 03:22:01;;;;;;;18.35;4.68;;;18.30;99.90;;;;;;5036436;28;20052;-77
2022/10/23 03:24:26;;;;;;;7.47;3.42;;;18.40;99.90;;;;;;5035211;28;20025;-77
2022/10/23 03:26:52;;;;;;;9.35;4.50;;;18.40;99.90;;;;;;5034865;28;20525;-77
2022/10/23 03:29:18;;;;;;;15.40;5.10;;;18.40;99.90;;;;;;5035269;28;20076;-76
2022/10/23 03:31:44;;;;;;;15.98;4.60;;;18.40;99.90;;;;;;5036250;28;20017;-77
2022/10/23 03:34:10;;;;;;;8.88;3.88;;;18.40;99.90;;;;;;5035033;28;20041;-76
2022/10/23 03:36:37;;;;;;;11.55;4.85;;;18.40;99.90;;;;;;5034694;28;20033;-77
2022/10/23 03:39:03;;;;;;;21.27;5.15;;;18.40;99.90;;;;;;5036672;28;20032;-77
2022/10/23 03:41:29;;;;;;;12.20;4.30;;;18.40;99.90;;;;;;5036149;28;20029;-76
2022/10/23 03:43:55;;;;;;;16.92;4.65;;;18.40;99.90;;;;;;5035823;28;20033;-76
2022/10/23 03:46:21;;;;;;;13.05;5.10;;;18.40;99.90;;;;;;5033923;28;20032;-76
2022/10/23 03:48:47;;;;;;;15.20;4.53;;;18.40;99.90;;;;;;5053866;28;20557;-77
2022/10/23 03:51:12;;;;;;;16.77;4.70;;;18.40;99.90;;;;;;5036983;28;20018;-77
2022/10/23 03:53:38;;;;;;;12.63;4.68;;;18.40;99.90;;;;;;5054203;28;20024;-77
2022/10/23 03:56:04;;;;;;;9.48;4.53;;;18.40;99.90;;;;;;5037034;28;20017;-77
2022/10/23 03:58:30;;;;;;;9.13;4.07;;;18.30;99.90;;;;;;5054127;28;20379;-77
2022/10/23 04:00:56;;;;;;;10.20;4.55;;;18.30;99.90;;;;;;5037237;28;20044;-77
2022/10/23 04:03:22;;;;;;;10.10;4.55;;;18.30;99.90;;;;;;5036612;28;20030;-77
2022/10/23 04:05:49;;;;;;;17.85;5.10;;;18.30;99.90;;;;;;5038436;28;20018;-77
2022/10/23 04:08:14;;;;;;;22.55;4.38;;;18.30;99.90;;;;;;5037246;28;20047;-77
2022/10/23 04:10:40;;;;;;;13.85;5.05;;;18.30;99.90;;;;;;5053575;28;20104;-77
2022/10/23 04:13:06;;;;;;;7.97;4.45;;;18.30;99.90;;;;;;5038309;28;20084;-76
2022/10/23 04:15:32;;;;;;;13.98;5.22;;;18.40;99.90;;;;;;5037080;28;20493;-77
2022/10/23 04:17:57;;;;;;;12.43;4.35;;;18.30;99.90;;;;;;5038640;28;20029;-77
2022/10/23 04:20:23;;;;;;;9.98;4.13;;;18.40;99.90;;;;;;5038167;28;20014;-77
2022/10/23 04:22:49;;;;;;;9.55;4.55;;;18.40;99.90;;;;;;5034169;28;20029;-77
2022/10/23 04:25:15;;;;;;;15.18;4.93;;;18.40;99.90;;;;;;5036936;28;20112;-76
2022/10/23 04:27:41;;;;;;;13.57;4.03;;;18.30;99.90;;;;;;5053502;28;20082;-77
2022/10/23 04:30:08;;;;;;;10.05;4.00;;;18.30;99.90;;;;;;5038149;28;20014;-77
2022/10/23 04:32:34;;;;;;;16.60;4.55;;;18.30;99.90;;;;;;5036360;28;20032;-76
2022/10/23 04:34:59;;;;;;;14.15;5.18;;;18.40;99.90;;;;;;5037991;28;20021;-78
2022/10/23 04:37:26;;;;;;;18.50;4.78;;;18.50;99.90;;;;;;5037873;28;20401;-77
2022/10/23 04:39:52;;;;;;;14.20;4.25;;;18.50;99.90;;;;;;5039015;28;20456;-75
2022/10/23 04:42:19;;;;;;;21.85;5.20;;;18.60;99.90;;;;;;5037948;28;20056;-77
2022/10/23 04:44:44;;;;;;;14.65;3.95;;;18.80;99.90;;;;;;5038662;28;20100;-77
2022/10/23 04:47:10;;;;;;;11.60;4.03;;;18.80;99.90;;;;;;5038619;28;20057;-76
2022/10/23 04:49:36;;;;;;;10.07;3.65;;;18.90;99.90;;;;;;5037336;28;20021;-77
2022/10/23 04:52:02;;;;;;;12.48;4.13;;;18.90;99.90;;;;;;5038597;28;20079;-77
2022/10/23 04:54:28;;;;;;;12.23;3.05;;;19.00;99.90;;;;;;5036590;28;20025;-76
2022/10/23 04:56:53;;;;;;;10.68;3.60;;;18.90;99.90;;;;;;5034437;28;20093;-74
2022/10/23 04:59:19;;;;;;;11.82;4.40;;;18.90;99.90;;;;;;5031699;28;20557;-75
2022/10/23 05:01:45;;;;;;;14.07;4.72;;;18.90;99.90;;;;;;5036623;28;20029;-75
2022/10/23 05:04:12;;;;;;;14.45;5.07;;;19.00;99.90;;;;;;5052096;28;20436;-76
2022/10/23 05:06:38;;;;;;;16.00;4.57;;;18.90;99.90;;;;;;5038458;28;20021;-75
2022/10/23 05:09:04;;;;;;;13.88;4.32;;;18.90;99.90;;;;;;5036317;28;20025;-75
2022/10/23 05:11:30;;;;;;;12.20;4.15;;;18.90;99.90;;;;;;5053640;28;20167;-75
2022/10/23 05:13:56;;;;;;;13.70;4.82;;;18.80;99.90;;;;;;5036178;28;20513;-77
2022/10/23 05:16:32;;;;;;;15.20;4.22;;;18.80;99.90;;;;;;5038304;28;20032;-75
2022/10/23 05:18:59;;;;;;;13.13;3.85;;;18.80;99.90;;;;;;5037303;28;20071;-75
2022/10/23 05:21:28;;;;;;;12.07;4.68;;;18.80;99.90;;;;;;5038222;28;20498;-75
2022/10/23 05:23:54;;;;;;;16.15;3.72;;;18.80;99.90;;;;;;5043734;28;20025;-76
2022/10/23 05:26:21;;;;;;;13.32;4.30;;;18.70;99.90;;;;;;5037606;28;20056;-74
2022/10/23 05:28:47;;;;;;;19.88;5.53;;;18.70;99.90;;;;;;5036586;28;20028;-75
2022/10/23 05:31:14;;;;;;;12.30;3.55;;;18.70;99.90;;;;;;5034262;28;20037;-76
2022/10/23 05:33:40;;;;;;;7.57;4.18;;;18.80;99.90;;;;;;5037106;28;20017;-75
2022/10/23 05:36:07;;;;;;;14.95;4.07;;;18.80;99.90;;;;;;5038009;28;20026;-75
2022/10/23 05:38:34;;;;;;;11.27;3.92;;;18.80;99.90;;;;;;5037722;28;20022;-76
2022/10/23 05:41:00;;;;;;;17.02;5.20;;;18.90;99.90;;;;;;5036139;28;20029;-76
2022/10/23 05:43:29;;;;;;;21.77;4.82;;;18.80;99.90;;;;;;5040449;28;20401;-75
2022/10/23 05:45:56;;;;;;;8.98;4.28;;;18.70;99.90;;;;;;5052210;28;20025;-76
2022/10/23 05:48:21;;;;;;;13.00;4.95;;;18.70;99.90;;;;;;5036618;28;20013;-75
2022/10/23 05:50:47;;;;;;;17.67;4.30;;;18.70;99.90;;;;;;5036876;28;20156;-76
2022/10/23 05:53:13;;;;;;;11.40;3.83;;;18.60;99.90;;;;;;5032954;28;20053;-75
2022/10/23 05:55:39;;;;;;;13.77;4.90;;;18.60;99.90;;;;;;5031655;28;20040;-75
2022/10/23 05:58:05;;;;;;;15.35;5.05;;;18.70;99.90;;;;;;5036165;28;20026;-76
2022/10/23 06:00:31;;;;;;;14.82;4.38;;;18.80;99.90;;;;;;5035436;28;20033;-76
2022/10/23 06:03:02;;;;;;;12.60;5.18;;;18.70;99.90;;;;;;5035757;28;20021;-76
2022/10/23 06:05:27;;;;;;;21.05;5.93;;;18.60;99.90;;;;;;5032838;28;20066;-75
2022/10/23 06:07:58;;;;;;;24.20;5.13;;;18.70;99.90;;;;;;5037763;28;20517;-75
2022/10/23 06:10:23;;;;;;;14.25;5.53;;;18.60;99.90;;;;;;5037003;28;20505;-77
2022/10/23 06:12:50;;;;;;;24.83;5.15;;;18.60;99.90;;;;;;5035010;28;20083;-76
2022/10/23 06:15:16;;;;;;;17.63;5.10;;;18.50;99.90;;;;;;5036870;28;20037;-76
2022/10/23 06:17:42;;;;;;;23.52;5.25;;;18.60;99.90;;;;;;5036904;28;20017;-76
2022/10/23 06:20:08;;;;;;;12.55;5.38;;;18.50;99.90;;;;;;5027786;28;20029;-76
2022/10/23 06:22:34;;;;;;;13.93;5.47;;;18.50;99.90;;;;;;5037051;28;20032;-76
2022/10/23 06:25:00;;;;;;;20.25;5.80;;;18.50;99.90;;;;;;5035975;28;20029;-74
2022/10/23 06:27:26;;;;;;;30.05;5.60;;;18.50;99.90;;;;;;5035775;28;20061;-76
2022/10/23 06:29:51;;;;;;;11.45;5.00;;;18.50;99.90;;;;;;5052013;28;20445;-75
2022/10/23 06:32:18;;;;;;;17.02;5.35;;;18.60;99.90;;;;;;5033833;28;20021;-76
2022/10/23 06:34:44;;;;;;;18.00;5.80;;;18.50;99.90;;;;;;5051453;28;20025;-76
2022/10/23 06:37:10;;;;;;;30.63;7.43;;;18.50;99.90;;;;;;5034070;28;20029;-76
2022/10/23 06:39:36;;;;;;;16.40;5.18;;;18.60;99.90;;;;;;5035880;28;20025;-75
2022/10/23 06:42:02;;;;;;;17.98;6.05;;;18.60;99.90;;;;;;5036714;28;20036;-75
2022/10/23 06:44:28;;;;;;;14.73;5.75;;;18.60;99.90;;;;;;5033854;28;20032;-75
2022/10/23 06:46:53;;;;;;;15.68;6.53;;;18.60;99.90;;;;;;5035504;28;20025;-75
2022/10/23 06:49:19;;;;;;;22.80;6.13;;;18.60;99.90;;;;;;5035740;28;20021;-75
2022/10/23 06:51:45;;;;;;;19.58;5.72;;;18.50;99.90;;;;;;5036957;28;20375;-76
2022/10/23 06:54:11;;;;;;;16.52;6.10;;;18.60;99.90;;;;;;5036476;28;20021;-76
2022/10/23 06:56:37;;;;;;;18.13;5.53;;;18.60;99.90;;;;;;5035956;28;20045;-76
2022/10/23 06:59:06;;;;;;;20.52;5.55;;;18.60;99.90;;;;;;5033083;28;20490;-75
2022/10/23 07:01:33;;;;;;;12.95;5.22;;;18.60;99.90;;;;;;5033260;28;20018;-75
2022/10/23 07:03:58;;;;;;;26.33;5.85;;;18.70;99.90;;;;;;5033647;28;20017;-75
2022/10/23 07:06:24;;;;;;;20.25;5.65;;;18.60;99.90;;;;;;5035115;28;20508;-76
2022/10/23 07:08:51;;;;;;;18.15;6.53;;;18.70;99.90;;;;;;5033180;28;20021;-76
2022/10/23 07:11:17;;;;;;;20.13;4.85;;;18.70;99.90;;;;;;5050482;28;20117;-75
2022/10/23 07:13:43;;;;;;;20.73;5.47;;;18.70;99.90;;;;;;5035354;28;20026;-76
2022/10/23 07:16:18;;;;;;;20.27;5.63;;;18.70;99.90;;;;;;5035329;28;20641;-76
2022/10/23 07:18:45;;;;;;;14.60;5.20;;;18.70;99.90;;;;;;5035270;28;20024;-75
2022/10/23 07:21:11;;;;;;;17.77;5.78;;;18.70;99.90;;;;;;5036184;28;20030;-75
2022/10/23 07:23:37;;;;;;;15.70;5.75;;;18.80;99.90;;;;;;5039828;28;20028;-76
2022/10/23 07:26:22;;;;;;;25.02;5.40;;;18.90;99.90;;;;;;5038837;28;20478;-76
2022/10/23 07:28:54;;;;;;;19.63;5.60;;;18.90;99.90;;;;;;5035782;28;20042;-75
2022/10/23 07:31:26;;;;;;;19.00;5.78;;;18.90;99.90;;;;;;5040393;28;20026;-75
2022/10/23 07:33:52;;;;;;;17.33;6.25;;;19.00;99.90;;;;;;5040323;28;20105;-76
2022/10/23 07:36:18;;;;;;;20.67;4.50;;;19.00;99.90;;;;;;5033566;28;20022;-76
2022/10/23 07:38:44;;;;;;;14.10;5.82;;;19.10;99.90;;;;;;5038738;28;20117;-76
2022/10/23 07:41:10;;;;;;;16.05;5.80;;;19.10;99.90;;;;;;5038677;28;20030;-76
2022/10/23 07:43:37;;;;;;;16.52;4.85;;;19.20;99.90;;;;;;5038443;28;20025;-74
2022/10/23 07:46:03;;;;;;;18.85;5.40;;;19.20;99.90;;;;;;5039610;28;20041;-76
2022/10/23 07:48:29;;;;;;;14.80;5.18;;;19.30;99.90;;;;;;5035654;28;20022;-75
2022/10/23 07:51:00;;;;;;;17.58;4.93;;;19.30;99.90;;;;;;5038614;28;20021;-76
2022/10/23 07:53:27;;;;;;;14.25;5.55;;;19.30;99.90;;;;;;5038592;28;20032;-75
2022/10/23 07:55:58;;;;;;;19.85;5.03;;;19.30;99.90;;;;;;5039516;28;20025;-76
2022/10/23 07:58:25;;;;;;;20.00;5.18;;;19.40;99.90;;;;;;5038545;28;20026;-76
2022/10/23 08:01:00;;;;;;;24.25;5.72;;;19.40;99.90;;;;;;5038907;28;20033;-76
2022/10/23 08:03:27;;;;;;;11.82;4.85;;;19.50;99.90;;;;;;5038252;28;20025;-76
2022/10/23 08:05:54;;;;;;;11.63;4.88;;;19.50;99.90;;;;;;5037405;28;20030;-77
2022/10/23 08:08:21;;;;;;;13.32;4.30;;;19.60;99.90;;;;;;5034816;28;20112;-76
2022/10/23 08:10:48;;;;;;;18.02;4.93;;;19.70;99.90;;;;;;5038063;28;20025;-78
2022/10/23 08:13:15;;;;;;;21.90;5.25;;;19.70;99.90;;;;;;5039333;28;20032;-77
2022/10/23 08:15:43;;;;;;;10.93;4.35;;;19.80;99.90;;;;;;5039313;28;20028;-76
2022/10/23 08:18:09;;;;;;;18.08;5.03;;;19.80;99.90;;;;;;5039433;28;20034;-75
2022/10/23 08:20:39;;;;;;;18.92;6.60;;;19.90;99.90;;;;;;5038389;28;20037;-76
2022/10/23 08:23:05;;;;;;;10.68;3.83;;;19.90;99.90;;;;;;5039372;28;20032;-75
2022/10/23 08:25:31;;;;;;;10.20;4.93;;;19.90;99.90;;;;;;5049919;28;20030;-76
2022/10/23 08:27:57;;;;;;;17.42;5.78;;;19.90;99.90;;;;;;5037812;28;20377;-76
2022/10/23 08:30:23;;;;;;;24.75;5.95;;;20.00;99.90;;;;;;5039269;28;20030;-76
2022/10/23 08:32:49;;;;;;;24.30;5.55;;;20.00;99.90;;;;;;5038739;28;20032;-76
2022/10/23 08:35:15;;;;;;;23.80;6.55;;;20.10;99.90;;;;;;5037835;28;20400;-76
2022/10/23 08:37:41;;;;;;;14.68;4.45;;;20.10;99.90;;;;;;5039062;28;20025;-75
2022/10/23 08:40:13;;;;;;;19.60;5.88;;;20.10;99.90;;;;;;5038976;28;20029;-79
2022/10/23 08:42:40;;;;;;;12.00;4.65;;;20.20;99.90;;;;;;5038561;28;20064;-78
2022/10/23 08:45:25;;;;;;;11.85;5.10;;;20.20;99.90;;;;;;5037651;28;20029;-76
2022/10/23 08:47:57;;;;;;;24.83;6.18;;;20.30;99.90;;;;;;5021008;28;20481;-77
2022/10/23 08:50:42;;;;;;;17.77;5.00;;;20.30;99.90;;;;;;5039184;28;20092;-78
2022/10/23 08:53:24;;;;;;;18.92;4.53;;;20.30;99.90;;;;;;5024398;28;20028;-76
2022/10/23 08:56:11;;;;;;;23.17;7.18;;;20.40;99.90;;;;;;5037305;28;20040;-76
2022/10/23 08:59:04;;;;;;;30.35;6.47;;;20.40;99.90;;;;;;5037945;28;20022;-76
2022/10/23 09:01:33;;;;;;;23.20;7.03;;;20.40;99.90;;;;;;5038012;28;20029;-76
2022/10/23 09:03:59;;;;;;;15.50;4.68;;;20.50;99.90;;;;;;5037041;28;20052;-76
2022/10/23 09:06:40;;;;;;;13.40;5.32;;;20.60;99.90;;;;;;5034045;28;20034;-75
2022/10/23 09:09:33;;;;;;;27.30;5.53;;;20.60;99.90;;;;;;5051440;28;20037;-75
2022/10/23 09:12:14;;;;;;;18.20;5.93;;;20.70;99.90;;;;;;5032478;28;20048;-75
2022/10/23 09:15:07;;;;;;;15.63;5.63;;;20.70;99.90;;;;;;5032697;28;20034;-75
2022/10/23 09:17:36;;;;;;;23.58;5.13;;;20.80;99.90;;;;;;5035924;28;20108;-76
2022/10/23 09:20:30;;;;;;;16.45;5.22;;;20.80;99.90;;;;;;5038273;28;20025;-75
2022/10/23 09:23:03;;;;;;;23.17;5.45;;;20.90;99.90;;;;;;5037034;28;20033;-75
2022/10/23 09:25:36;;;;;;;15.35;4.90;;;21.00;99.90;;;;;;5037819;28;20513;-75
2022/10/23 09:28:03;;;;;;;17.83;5.35;;;21.10;99.90;;;;;;5036656;28;20455;-75
2022/10/23 09:30:36;;;;;;;13.05;4.60;;;21.20;99.90;;;;;;5036777;28;20079;-76
2022/10/23 09:33:26;;;;;;;21.38;5.85;;;21.30;99.90;;;;;;5036705;28;20029;-75
2022/10/23 09:36:03;;;;;;;;;;;21.30;99.90;;;;;;5038453;28;20473;-76
2022/10/23 09:38:46;;;;;;;19.83;6.05;;;21.40;99.90;;;;;;5038045;28;19916;-77
2022/10/23 09:41:29;;;;;;;15.05;4.60;;;21.50;99.90;;;;;;5048383;28;20037;-76
2022/10/23 09:44:07;;;;;;;20.00;6.57;;;21.50;99.90;;;;;;5037423;28;20018;-75
2022/10/23 09:46:40;;;;;;;14.02;4.88;;;21.60;99.90;;;;;;5037658;28;20374;-75
2022/10/23 09:49:21;;;;;;;17.45;5.45;;;21.70;99.90;;;;;;5037569;28;20502;-75
2022/10/23 09:51:53;;;;;;;16.15;4.68;;;21.70;99.90;;;;;;5036487;28;20018;-75
2022/10/23 09:54:22;;;;;;;22.27;5.53;;;21.80;99.90;;;;;;5037554;28;20604;-75
2022/10/23 09:56:49;;;;;;;20.35;5.20;;;21.90;99.90;;;;;;5052885;28;20104;-75
2022/10/23 09:59:20;;;;;;;14.18;4.40;;;21.90;99.90;;;;;;5037433;28;20057;-74
2022/10/23 10:01:53;;;;;;;13.45;4.47;;;22.00;99.90;;;;;;5037701;28;20025;-75
2022/10/23 10:04:29;;;;;;;15.27;4.18;;;22.10;99.90;;;;;;5037014;28;20022;-74
2022/10/23 10:07:00;;;;;;;20.10;5.32;;;22.20;99.90;;;;;;5035743;28;20021;-75
2022/10/23 10:09:27;;;;;;;22.05;5.70;;;22.40;99.90;;;;;;5031316;28;20053;-75
2022/10/23 10:12:22;;;;;;;23.75;5.40;;;22.60;99.90;;;;;;5036702;28;20045;-75
2022/10/23 10:15:22;;;;;;;19.00;5.35;;;22.70;99.90;;;;;;5035953;28;20032;-76
2022/10/23 10:17:51;;;;;;;26.10;5.28;;;22.70;99.90;;;;;;5043497;28;20053;-75
2022/10/23 10:20:38;;;;;;;14.68;4.72;;;22.80;99.90;;;;;;5037264;28;20047;-75
2022/10/23 10:23:36;;;;;;;20.33;5.07;;;23.00;99.90;;;;;;5037283;28;20021;-75
2022/10/23 10:26:36;;;;;;;20.08;5.50;;;23.20;99.90;;;;;;5026057;28;20049;-75
2022/10/23 10:29:24;;;;;;;22.42;5.53;;;23.20;99.90;;;;;;5027735;28;20017;-76
2022/10/23 10:32:10;;;;;;;17.83;5.47;;;23.20;99.90;;;;;;5037040;28;20032;-75
2022/10/23 10:34:54;;;;;;;16.13;4.68;;;23.20;99.90;;;;;;5037086;28;20096;-76
2022/10/23 10:37:42;;;;;;;19.92;4.60;;;23.10;99.90;;;;;;5021845;28;20433;-76
2022/10/23 10:40:54;;;;;;;20.25;4.22;;;23.20;99.90;;;;;;5032446;28;20584;-77
2022/10/23 10:43:46;;;;;;;13.07;5.00;;;23.40;99.90;;;;;;5010726;28;20081;-76
2022/10/23 10:46:37;;;;;;;11.70;3.72;;;23.70;99.90;;;;;;5013816;28;20030;-75
2022/10/23 10:49:14;;;;;;;15.73;4.63;;;24.00;99.90;;;;;;5026286;28;20041;-74
2022/10/23 10:51:53;;;;;;;16.33;4.97;;;24.20;99.90;;;;;;5033498;28;20029;-75
2022/10/23 10:54:47;;;;;;;19.52;5.20;;;24.30;99.90;;;;;;5048577;28;20036;-76
2022/10/23 10:57:38;;;;;;;11.32;4.05;;;24.30;99.90;;;;;;5038413;28;20067;-77
2022/10/23 11:00:14;;;;;;;14.60;4.80;;;24.30;99.90;;;;;;5037813;28;20122;-76
2022/10/23 11:03:08;;;;;;;13.50;4.10;;;24.20;99.90;;;;;;5039305;28;20025;-76
2022/10/23 11:05:41;;;;;;;12.15;4.28;;;24.10;99.90;;;;;;5055599;28;20025;-75
2022/10/23 11:08:21;;;;;;;15.52;4.13;;;24.00;99.90;;;;;;5040936;28;20018;-75
2022/10/23 11:10:52;;;;;;;18.57;4.20;;;24.00;99.90;;;;;;5037321;28;20028;-75
2022/10/23 11:13:33;;;;;;;15.00;3.88;;;24.00;99.90;;;;;;5040582;28;20029;-76
2022/10/23 11:16:22;;;;;;;8.68;3.03;;;24.00;99.90;;;;;;5040694;28;20021;-76
2022/10/23 11:19:17;;;;;;;12.85;3.53;;;24.20;99.90;;;;;;5037002;28;20140;-76
2022/10/23 11:21:54;;;;;;;14.52;3.10;;;24.60;99.90;;;;;;5035597;28;20041;-76
2022/10/23 11:24:41;;;;;;;18.88;3.40;;;24.80;99.90;;;;;;5040495;28;20029;-76
2022/10/23 11:27:28;;;;;;;9.60;3.35;;;24.90;99.90;;;;;;5039870;28;20429;-75
2022/10/23 11:30:30;;;;;;;12.63;3.70;;;24.80;99.90;;;;;;5040251;28;20029;-76
2022/10/23 11:33:42;;;;;;;10.43;3.63;;;24.80;99.90;;;;;;5037792;28;20021;-76
2022/10/23 11:36:13;;;;;;;10.40;2.50;;;24.80;99.90;;;;;;5036335;28;20041;-77
2022/10/23 11:38:43;;;;;;;7.55;2.35;;;25.10;99.90;;;;;;5039014;28;20053;-77
2022/10/23 11:41:32;;;;;;;6.30;1.95;;;25.50;99.90;;;;;;5038762;28;20045;-76
2022/10/23 11:44:02;;;;;;;2.88;1.27;;;25.60;99.90;;;;;;5038659;28;20490;-77
2022/10/23 11:46:34;;;;;;;6.55;1.65;;;25.70;99.90;;;;;;5036342;28;20017;-77
2022/10/23 11:49:02;;;;;;;6.22;1.52;;;26.10;99.90;;;;;;5033889;28;20022;-76
2022/10/23 11:51:37;;;;;;;5.47;1.55;;;26.50;96.40;;;;;;5038693;28;20020;-77
2022/10/23 11:54:12;;;;;;;7.80;1.40;;;26.70;96.40;;;;;;5038049;28;20017;-77
2022/10/23 11:57:03;;;;;;;10.27;2.08;;;27.00;93.80;;;;;;5037289;28;20689;-76
2022/10/23 11:59:30;;;;;;;;;;;27.10;96.00;;;;;;5033391;28;20022;-77
2022/10/23 12:01:59;;;;;;;3.47;1.38;;;27.20;91.80;;;;;;5037644;28;19909;-75
2022/10/23 12:04:46;;;;;;;6.32;1.55;;;27.40;93.10;;;;;;5037747;28;20028;-76
2022/10/23 12:07:29;;;;;;;4.22;1.23;;;27.50;91.50;;;;;;5037014;28;20481;-75
2022/10/23 12:10:01;;;;;;;5.97;1.48;;;27.40;90.30;;;;;;5037893;28;20017;-72
2022/10/23 12:12:33;;;;;;;3.35;1.33;;;27.30;91.00;;;;;;5038818;28;20124;-76
2022/10/23 12:15:18;;;;;;;9.73;1.50;;;27.10;91.20;;;;;;5039060;28;20100;-76
2022/10/23 12:17:46;;;;;;;6.15;1.27;;;27.10;90.30;;;;;;5037138;28;20397;-74
2022/10/23 12:20:11;;;;;;;6.97;1.70;;;27.00;89.10;;;;;;5039304;28;20029;-77
2022/10/23 12:22:43;;;;;;;4.20;1.10;;;27.00;87.70;;;;;;5039728;28;20048;-76
2022/10/23 12:25:32;;;;;;;5.65;1.42;;;27.00;86.20;;;;;;5039178;28;20047;-74
2022/10/23 12:28:26;;;;;;;6.40;1.40;;;27.00;88.00;;;;;;5039236;28;20083;-76
2022/10/23 12:31:07;;;;;;;2.50;1.33;;;26.90;90.90;;;;;;5052386;28;20030;-75
2022/10/23 12:33:52;;;;;;;12.27;2.03;;;26.90;90.20;;;;;;5038101;28;20022;-73
2022/10/23 12:36:36;;;;;;;4.22;1.50;;;26.80;86.00;;;;;;5039077;28;20029;-74
2022/10/23 12:39:02;;;;;;;7.72;2.03;;;26.80;88.00;;;;;;5038692;28;20032;-74
2022/10/23 12:41:30;;;;;;;6.22;1.20;;;26.80;86.30;;;;;;5038867;28;20045;-74
2022/10/23 12:44:02;;;;;;;10.45;1.60;;;26.60;87.50;;;;;;5038571;28;20044;-74
2022/10/23 12:46:30;;;;;;;7.72;1.63;;;26.60;86.50;;;;;;5038195;28;20075;-73
2022/10/23 12:48:58;;;;;;;8.85;1.50;;;26.60;84.50;;;;;;5039033;28;20026;-75
2022/10/23 12:51:32;;;;;;;4.25;1.60;;;26.50;88.90;;;;;;5039046;28;20025;-74
2022/10/23 12:53:58;;;;;;;7.18;1.95;;;26.40;87.10;;;;;;5037775;28;20082;-74
2022/10/23 12:56:25;;;;;;;3.50;1.25;;;26.30;88.70;;;;;;5037561;28;20017;-74
2022/10/23 12:58:55;;;;;;;9.93;2.03;;;26.20;87.40;;;;;;5038191;28;20159;-74
2022/10/23 13:01:32;;;;;;;5.63;1.40;;;26.10;85.80;;;;;;5038210;28;20544;-74
2022/10/23 13:04:21;;;;;;;9.75;2.08;;;26.00;89.70;;;;;;5035942;28;20116;-74
2022/10/23 13:06:48;;;;;;;7.72;1.38;;;26.00;89.80;;;;;;5037303;28;20071;-75